Time;durP1;ratioP1;P1;durP2;ratioP2;P2;SDS_P1;SDS_P2;PMS_P1;PMS_P2;Temp;Humidity;BMP_temperature;BMP_pressure;BME280_temperature;BME280_humidity;BME280_pressure;Samples;Min_cycle;Max_cycle;Signal;HPM_P1;HPM_P2
2023/06/18 00:02:04;;;;;;;0.80;0.80;;;;;;;;;;5066870;28;20465;-74
2023/06/18 00:04:31;;;;;;;0.70;0.67;;;;;;;;;;5063540;28;20520;-73
2023/06/18 00:06:58;;;;;;;0.80;0.70;;;;;;;;;;5065770;28;20464;-73
2023/06/18 00:09:24;;;;;;;0.80;0.80;;;;;;;;;;5063768;28;20468;-75
2023/06/18 00:11:51;;;;;;;0.73;0.70;;;;;;;;;;5063033;28;20459;-75
2023/06/18 00:14:17;;;;;;;0.73;0.60;;;;;;;;;;5068733;28;20443;-75
2023/06/18 00:16:44;;;;;;;2.97;2.10;;;;;;;;;;5068451;28;20435;-74
2023/06/18 00:19:13;;;;;;;0.80;0.70;;;;;;;;;;5058891;28;20443;-75
2023/06/18 00:21:39;;;;;;;0.70;0.70;;;;;;;;;;5059343;28;20472;-75
2023/06/18 00:24:06;;;;;;;1.43;1.33;;;;;;;;;;5063031;28;20444;-76
2023/06/18 00:26:32;;;;;;;1.10;1.00;;;;;;;;;;5067890;28;20836;-75
2023/06/18 00:29:00;;;;;;;1.27;1.17;;;;;;;;;;5069392;28;20466;-76
2023/06/18 00:31:27;;;;;;;0.80;0.70;;;;;;;;;;5064421;28;20442;-76
2023/06/18 00:33:55;;;;;;;1.53;1.43;;;;;;;;;;5064091;28;20844;-76
2023/06/18 00:36:26;;;;;;;0.70;0.60;;;;;;;;;;5062975;28;20449;-75
2023/06/18 00:38:52;;;;;;;1.10;0.90;;;;;;;;;;5066363;28;20448;-75
2023/06/18 00:41:19;;;;;;;1.10;1.00;;;;;;;;;;5066272;28;20449;-75
2023/06/18 00:43:45;;;;;;;0.80;0.70;;;;;;;;;;5052681;28;20465;-74
2023/06/18 00:46:12;;;;;;;1.27;1.17;;;;;;;;;;5068907;28;20446;-75
2023/06/18 00:48:40;;;;;;;0.80;0.70;;;;;;;;;;5060984;28;20783;-75
2023/06/18 00:51:07;;;;;;;0.80;0.70;;;;;;;;;;5051920;28;20475;-73
2023/06/18 00:53:35;;;;;;;1.20;1.13;;;;;;;;;;5064584;28;20487;-73
2023/06/18 00:56:01;;;;;;;0.80;0.80;;;;;;;;;;5062047;28;20470;-74
2023/06/18 00:58:28;;;;;;;1.00;0.80;;;;;;;;;;5060411;28;20447;-74
2023/06/18 01:00:55;;;;;;;0.90;0.80;;;;;;;;;;5059836;28;20431;-74
2023/06/18 01:03:22;;;;;;;1.37;1.27;;;;;;;;;;5060111;28;20446;-74
2023/06/18 01:05:51;;;;;;;0.80;0.70;;;;;;;;;;5067124;28;20488;-75
2023/06/18 01:08:23;;;;;;;0.77;0.77;;;;;;;;;;5068556;28;21163;-75
2023/06/18 01:10:57;;;;;;;0.80;0.80;;;;;;;;;;5063174;28;20457;-75
2023/06/18 01:13:25;;;;;;;0.70;0.67;;;;;;;;;;5065327;28;20446;-75
2023/06/18 01:15:51;;;;;;;2.10;1.80;;;;;;;;;;5060936;28;20518;-75
2023/06/18 01:18:19;;;;;;;0.80;0.77;;;;;;;;;;5060101;28;20937;-75
2023/06/18 01:20:49;;;;;;;0.80;0.70;;;;;;;;;;5062267;28;20430;-75
2023/06/18 01:23:21;;;;;;;0.70;0.70;;;;;;;;;;5067826;28;20953;-75
2023/06/18 01:25:49;;;;;;;1.00;0.90;;;;;;;;;;5064769;28;20432;-75
2023/06/18 01:28:17;;;;;;;1.53;1.03;;;;;;;;;;5064573;28;20453;-76
2023/06/18 01:30:44;;;;;;;0.70;0.70;;;;;;;;;;5060908;28;20561;-73
2023/06/18 01:33:12;;;;;;;1.97;1.87;;;;;;;;;;5053313;28;20454;-75
2023/06/18 01:35:39;;;;;;;1.20;1.10;;;;;;;;;;5062821;28;20830;-75
2023/06/18 01:38:17;;;;;;;0.80;0.70;;;;;;;;;;5064395;28;20518;-76
2023/06/18 01:40:46;;;;;;;0.83;0.83;;;;;;;;;;5062951;28;20434;-75
2023/06/18 01:43:17;;;;;;;0.80;0.70;;;;;;;;;;5061046;28;20453;-75
2023/06/18 01:45:46;;;;;;;0.77;0.70;;;;;;;;;;5064926;28;20440;-73
2023/06/18 01:48:13;;;;;;;0.80;0.80;;;;;;;;;;5064139;28;21044;-75
2023/06/18 01:50:42;;;;;;;0.80;0.80;;;;;;;;;;5059488;28;20467;-74
2023/06/18 01:53:11;;;;;;;0.80;0.77;;;;;;;;;;5057613;28;20462;-75
2023/06/18 01:55:38;;;;;;;0.80;0.80;;;;;;;;;;5067144;28;20449;-75
2023/06/18 01:58:06;;;;;;;0.70;0.60;;;;;;;;;;5058762;28;20545;-74
2023/06/18 02:00:33;;;;;;;1.63;1.53;;;;;;;;;;5061536;28;20494;-75
2023/06/18 02:03:01;;;;;;;0.70;0.60;;;;;;;;;;5048865;28;21072;-75
2023/06/18 02:05:28;;;;;;;1.97;1.83;;;;;;;;;;5064464;28;20866;-73
2023/06/18 02:07:54;;;;;;;0.70;0.63;;;;;;;;;;5064236;28;20550;-73
2023/06/18 02:10:21;;;;;;;0.80;0.70;;;;;;;;;;5062147;28;21453;-75
2023/06/18 02:12:48;;;;;;;1.17;1.00;;;;;;;;;;5062612;28;20438;-73
2023/06/18 02:15:15;;;;;;;0.70;0.60;;;;;;;;;;5062044;28;20856;-75
2023/06/18 02:17:42;;;;;;;0.73;0.67;;;;;;;;;;5062751;28;20485;-74
2023/06/18 02:20:10;;;;;;;0.80;0.70;;;;;;;;;;5058885;28;20493;-75
2023/06/18 02:22:37;;;;;;;0.70;0.60;;;;;;;;;;5045656;28;20459;-75
2023/06/18 02:25:04;;;;;;;0.73;0.70;;;;;;;;;;5059332;28;20435;-75
2023/06/18 02:27:31;;;;;;;1.57;1.47;;;;;;;;;;5060297;28;20469;-75
2023/06/18 02:29:59;;;;;;;1.10;1.00;;;;;;;;;;5067329;28;20560;-74
2023/06/18 02:32:28;;;;;;;0.90;0.80;;;;;;;;;;5058177;28;20442;-75
2023/06/18 02:34:56;;;;;;;1.67;1.57;;;;;;;;;;5065533;28;20443;-75
2023/06/18 02:37:24;;;;;;;0.80;0.80;;;;;;;;;;5060613;28;20456;-75
2023/06/18 02:39:51;;;;;;;2.43;2.30;;;;;;;;;;5063468;28;20947;-75
2023/06/18 02:42:20;;;;;;;0.80;0.70;;;;;;;;;;5060842;28;20464;-75
2023/06/18 02:44:48;;;;;;;0.80;0.70;;;;;;;;;;5061232;28;20443;-75
2023/06/18 02:47:14;;;;;;;0.70;0.60;;;;;;;;;;5049716;28;20449;-75
2023/06/18 02:49:41;;;;;;;0.70;0.60;;;;;;;;;;5058241;28;20497;-74
2023/06/18 02:52:08;;;;;;;0.77;0.70;;;;;;;;;;5057169;28;20500;-73
2023/06/18 02:54:36;;;;;;;0.70;0.60;;;;;;;;;;5065520;28;20446;-73
2023/06/18 02:57:03;;;;;;;4.10;3.70;;;;;;;;;;5065172;28;20780;-75
2023/06/18 02:59:30;;;;;;;1.00;0.90;;;;;;;;;;5045781;28;20447;-75
2023/06/18 03:01:57;;;;;;;1.13;1.03;;;;;;;;;;5059999;28;20448;-74
2023/06/18 03:04:24;;;;;;;0.70;0.60;;;;;;;;;;5065168;28;20847;-75
2023/06/18 03:06:50;;;;;;;1.90;1.80;;;;;;;;;;5064260;28;20464;-75
2023/06/18 03:09:17;;;;;;;0.70;0.70;;;;;;;;;;5061729;28;20454;-76
2023/06/18 03:11:45;;;;;;;0.70;0.60;;;;;;;;;;5065273;28;20444;-76
2023/06/18 03:14:12;;;;;;;0.70;0.70;;;;;;;;;;5060601;28;20519;-76
2023/06/18 03:16:38;;;;;;;0.70;0.60;;;;;;;;;;5064409;28;20444;-75
2023/06/18 03:19:05;;;;;;;0.80;0.70;;;;;;;;;;5066354;28;20450;-75
2023/06/18 03:21:35;;;;;;;0.80;0.67;;;;;;;;;;5068394;28;20441;-74
2023/06/18 03:24:03;;;;;;;2.53;2.40;;;;;;;;;;5047929;28;20449;-76
2023/06/18 03:26:30;;;;;;;1.07;0.90;;;;;;;;;;5066789;28;20968;-75
2023/06/18 03:28:58;;;;;;;1.07;0.97;;;;;;;;;;5062071;28;20449;-74
2023/06/18 03:31:26;;;;;;;0.90;0.90;;;;;;;;;;5065352;28;20545;-75
2023/06/18 03:33:53;;;;;;;0.70;0.60;;;;;;;;;;5063935;28;20454;-74
2023/06/18 03:36:20;;;;;;;1.33;1.23;;;;;;;;;;5068461;28;20958;-75
2023/06/18 03:38:49;;;;;;;0.70;0.60;;;;;;;;;;5065932;28;20947;-75
2023/06/18 03:41:15;;;;;;;0.70;0.70;;;;;;;;;;5067471;28;21052;-74
2023/06/18 03:43:42;;;;;;;6.10;1.90;;;;;;;;;;5067881;28;20899;-74
2023/06/18 03:46:10;;;;;;;1.63;1.53;;;;;;;;;;5068720;28;20498;-75
2023/06/18 03:48:37;;;;;;;0.70;0.70;;;;;;;;;;5063395;28;20436;-75
2023/06/18 03:51:04;;;;;;;1.00;0.90;;;;;;;;;;5060166;28;20484;-76
2023/06/18 03:53:36;;;;;;;0.73;0.67;;;;;;;;;;5075875;28;20524;-75
2023/06/18 03:56:04;;;;;;;2.30;0.93;;;;;;;;;;5065606;28;20440;-75
2023/06/18 03:58:30;;;;;;;0.70;0.60;;;;;;;;;;5067499;28;20559;-75
2023/06/18 04:00:57;;;;;;;0.80;0.73;;;;;;;;;;5057889;28;20800;-75
2023/06/18 04:03:25;;;;;;;1.63;1.53;;;;;;;;;;5068066;28;20981;-75
2023/06/18 04:05:53;;;;;;;0.70;0.70;;;;;;;;;;5062655;28;20473;-73
2023/06/18 04:08:20;;;;;;;2.60;2.50;;;;;;;;;;5066387;28;20462;-75
2023/06/18 04:10:47;;;;;;;0.90;0.80;;;;;;;;;;5069867;28;20842;-75
2023/06/18 04:13:15;;;;;;;0.70;0.70;;;;;;;;;;5049538;28;20434;-74
2023/06/18 04:15:42;;;;;;;0.80;0.80;;;;;;;;;;5080367;28;21023;-74
2023/06/18 04:18:09;;;;;;;0.90;0.90;;;;;;;;;;5069040;28;20439;-74
2023/06/18 04:20:37;;;;;;;6.80;1.50;;;;;;;;;;5054365;28;20428;-74
2023/06/18 04:23:04;;;;;;;0.70;0.60;;;;;;;;;;5066683;28;20447;-74
2023/06/18 04:25:30;;;;;;;0.70;0.70;;;;;;;;;;5067317;28;20799;-73
2023/06/18 04:27:57;;;;;;;0.70;0.70;;;;;;;;;;5064694;28;21351;-75
2023/06/18 04:30:25;;;;;;;0.70;0.60;;;;;;;;;;5068140;28;20480;-75
2023/06/18 04:32:53;;;;;;;0.70;0.70;;;;;;;;;;5059567;28;20716;-76
2023/06/18 04:35:20;;;;;;;1.30;1.20;;;;;;;;;;5064302;28;20446;-75
2023/06/18 04:37:48;;;;;;;0.80;0.80;;;;;;;;;;5066485;28;20485;-74
2023/06/18 04:40:15;;;;;;;0.80;0.70;;;;;;;;;;5062249;28;20962;-75
2023/06/18 04:42:45;;;;;;;0.70;0.60;;;;;;;;;;5064735;28;20512;-75
2023/06/18 04:45:17;;;;;;;0.90;0.80;;;;;;;;;;5065089;28;20816;-75
2023/06/18 04:47:44;;;;;;;0.70;0.60;;;;;;;;;;5063820;28;20478;-75
2023/06/18 04:50:10;;;;;;;0.80;0.70;;;;;;;;;;5067141;28;20471;-76
2023/06/18 04:52:42;;;;;;;1.77;1.30;;;;;;;;;;5064411;28;20500;-73
2023/06/18 04:55:11;;;;;;;0.77;0.73;;;;;;;;;;5068114;28;20435;-74
2023/06/18 04:57:37;;;;;;;0.70;0.60;;;;;;;;;;5065230;28;20964;-75
2023/06/18 05:00:06;;;;;;;0.80;0.70;;;;;;;;;;5068254;28;20557;-75
2023/06/18 05:02:36;;;;;;;0.70;0.70;;;;;;;;;;5064682;28;20957;-74
2023/06/18 05:05:04;;;;;;;1.73;1.63;;;;;;;;;;5067196;28;20454;-74
2023/06/18 05:07:30;;;;;;;0.80;0.70;;;;;;;;;;5072819;28;21064;-75
2023/06/18 05:09:57;;;;;;;0.77;0.60;;;;;;;;;;5062865;28;20437;-75
2023/06/18 05:12:26;;;;;;;0.80;0.70;;;;;;;;;;5055207;28;20937;-75
2023/06/18 05:14:53;;;;;;;0.80;0.70;;;;;;;;;;5056310;28;20481;-74
2023/06/18 05:17:21;;;;;;;0.70;0.60;;;;;;;;;;5064363;28;20486;-74
2023/06/18 05:19:48;;;;;;;0.73;0.70;;;;;;;;;;5066777;28;20450;-74
2023/06/18 05:22:15;;;;;;;0.80;0.70;;;;;;;;;;5058788;28;20467;-74
2023/06/18 05:24:42;;;;;;;1.20;1.10;;;;;;;;;;5059747;28;20437;-76
2023/06/18 05:27:09;;;;;;;0.80;0.70;;;;;;;;;;5065301;28;20530;-75
2023/06/18 05:29:38;;;;;;;1.23;0.93;;;;;;;;;;5066181;28;20455;-74
2023/06/18 05:32:05;;;;;;;0.80;0.77;;;;;;;;;;5058758;28;20463;-74
2023/06/18 05:34:33;;;;;;;0.80;0.70;;;;;;;;;;5065831;28;20448;-74
2023/06/18 05:37:00;;;;;;;0.73;0.70;;;;;;;;;;5057689;28;20464;-74
2023/06/18 05:39:26;;;;;;;0.90;0.80;;;;;;;;;;5066336;28;20440;-74
2023/06/18 05:41:53;;;;;;;2.50;1.10;;;;;;;;;;5062912;28;20522;-74
2023/06/18 05:44:22;;;;;;;0.93;0.83;;;;;;;;;;5067032;28;20450;-74
2023/06/18 05:46:50;;;;;;;0.80;0.70;;;;;;;;;;5065782;28;20935;-73
2023/06/18 05:49:17;;;;;;;1.07;0.97;;;;;;;;;;5058363;28;20956;-74
2023/06/18 05:51:45;;;;;;;0.80;0.70;;;;;;;;;;5038360;28;20540;-75
2023/06/18 05:54:12;;;;;;;0.90;0.90;;;;;;;;;;5060609;28;21235;-75
2023/06/18 05:56:39;;;;;;;0.80;0.70;;;;;;;;;;5060202;28;20439;-75
2023/06/18 05:59:06;;;;;;;1.83;1.73;;;;;;;;;;5067978;28;21189;-73
2023/06/18 06:01:38;;;;;;;1.30;1.20;;;;;;;;;;5056829;28;20451;-76
2023/06/18 06:04:06;;;;;;;1.20;1.10;;;;;;;;;;5065135;28;20514;-73
2023/06/18 06:06:33;;;;;;;0.90;0.87;;;;;;;;;;5066495;28;20541;-73
2023/06/18 06:09:00;;;;;;;0.80;0.80;;;;;;;;;;5064234;28;21130;-75
2023/06/18 06:11:27;;;;;;;0.80;0.80;;;;;;;;;;5067223;28;20491;-76
2023/06/18 06:13:54;;;;;;;0.80;0.80;;;;;;;;;;5059393;28;20494;-72
2023/06/18 06:16:20;;;;;;;0.90;0.90;;;;;;;;;;5063973;28;20536;-75
2023/06/18 06:18:49;;;;;;;0.90;0.80;;;;;;;;;;5064587;28;20442;-75
2023/06/18 06:21:17;;;;;;;1.00;0.90;;;;;;;;;;5058735;28;20445;-76
2023/06/18 06:23:43;;;;;;;1.23;1.13;;;;;;;;;;5061916;28;20856;-75
2023/06/18 06:26:10;;;;;;;1.53;1.00;;;;;;;;;;5048088;28;20470;-74
2023/06/18 06:28:37;;;;;;;0.80;0.80;;;;;;;;;;5058534;28;20815;-74
2023/06/18 06:31:06;;;;;;;1.00;0.80;;;;;;;;;;5056273;28;20957;-74
2023/06/18 06:33:33;;;;;;;1.27;1.17;;;;;;;;;;5068826;28;20441;-72
2023/06/18 06:36:00;;;;;;;0.80;0.80;;;;;;;;;;5075042;28;20495;-74
2023/06/18 06:38:28;;;;;;;0.80;0.70;;;;;;;;;;5063659;28;20482;-76
2023/06/18 06:40:55;;;;;;;4.03;1.23;;;;;;;;;;5065170;28;20450;-76
2023/06/18 06:43:24;;;;;;;0.93;0.83;;;;;;;;;;5060262;28;20436;-75
2023/06/18 06:46:09;;;;;;;1.97;1.77;;;;;;;;;;5062301;28;20443;-75
2023/06/18 06:48:51;;;;;;;1.43;1.33;;;;;;;;;;5051089;28;20447;-75
2023/06/18 06:51:46;;;;;;;0.80;0.73;;;;;;;;;;5027839;28;20473;-75
2023/06/18 06:54:15;;;;;;;1.10;0.97;;;;;;;;;;5064584;28;20446;-75
2023/06/18 06:56:41;;;;;;;1.10;1.00;;;;;;;;;;5063701;28;20439;-75
2023/06/18 06:59:08;;;;;;;2.67;1.47;;;;;;;;;;5057729;28;20440;-74
2023/06/18 07:01:35;;;;;;;0.80;0.80;;;;;;;;;;5060005;28;20435;-75
2023/06/18 07:04:03;;;;;;;1.10;1.00;;;;;;;;;;5056495;28;20439;-76
2023/06/18 07:06:31;;;;;;;1.30;1.20;;;;;;;;;;5058075;28;20439;-75
2023/06/18 07:08:59;;;;;;;1.03;0.97;;;;;;;;;;5057682;28;20970;-75
2023/06/18 07:11:27;;;;;;;1.40;1.30;;;;;;;;;;5059430;28;20475;-73
2023/06/18 07:13:54;;;;;;;1.40;1.30;;;;;;;;;;5057123;28;20777;-74
2023/06/18 07:16:20;;;;;;;0.80;0.80;;;;;;;;;;5057126;28;20801;-75
2023/06/18 07:18:47;;;;;;;1.10;1.00;;;;;;;;;;5066073;28;20946;-75
2023/06/18 07:21:14;;;;;;;1.10;1.00;;;;;;;;;;5056500;28;20431;-75
2023/06/18 07:23:41;;;;;;;0.80;0.70;;;;;;;;;;5060329;28;20464;-75
2023/06/18 07:26:07;;;;;;;0.80;0.80;;;;;;;;;;5057037;28;20486;-76
2023/06/18 07:28:37;;;;;;;1.43;1.33;;;;;;;;;;5060195;28;20437;-77
2023/06/18 07:31:04;;;;;;;1.00;0.90;;;;;;;;;;5067609;28;20547;-75
2023/06/18 07:33:31;;;;;;;1.20;1.10;;;;;;;;;;5067219;28;20427;-76
2023/06/18 07:35:57;;;;;;;1.87;0.90;;;;;;;;;;5059931;28;20443;-75
2023/06/18 07:38:24;;;;;;;0.80;0.80;;;;;;;;;;5063582;28;20454;-75
2023/06/18 07:40:51;;;;;;;1.10;0.80;;;;;;;;;;5059202;28;20440;-76
2023/06/18 07:43:19;;;;;;;1.43;1.33;;;;;;;;;;5063149;28;20466;-75
2023/06/18 07:45:47;;;;;;;1.20;1.10;;;;;;;;;;5060839;28;20518;-76
2023/06/18 07:48:14;;;;;;;1.30;1.20;;;;;;;;;;5066020;28;20530;-74
2023/06/18 07:50:41;;;;;;;0.80;0.73;;;;;;;;;;5054706;28;20523;-75
2023/06/18 07:53:07;;;;;;;0.80;0.80;;;;;;;;;;5062639;28;20456;-74
2023/06/18 07:55:34;;;;;;;0.90;0.80;;;;;;;;;;5066774;28;20455;-76
2023/06/18 07:58:02;;;;;;;0.80;0.80;;;;;;;;;;5063510;28;20477;-75
2023/06/18 08:00:29;;;;;;;3.90;2.30;;;;;;;;;;5066513;28;20440;-75
2023/06/18 08:02:57;;;;;;;1.40;1.00;;;;;;;;;;5068548;28;20426;-76
2023/06/18 08:05:25;;;;;;;3.33;1.73;;;;;;;;;;5070872;28;20443;-76
2023/06/18 08:07:51;;;;;;;0.80;0.80;;;;;;;;;;5064006;28;21026;-74
2023/06/18 08:10:18;;;;;;;0.90;0.80;;;;;;;;;;5049599;28;20411;-76
2023/06/18 08:12:44;;;;;;;1.00;0.90;;;;;;;;;;5067507;28;21008;-75
2023/06/18 08:15:11;;;;;;;1.30;1.20;;;;;;;;;;5069845;28;20505;-77
2023/06/18 08:17:38;;;;;;;1.83;1.27;;;;;;;;;;5066132;28;20541;-76
2023/06/18 08:20:07;;;;;;;1.67;1.50;;;;;;;;;;5063542;28;21092;-75
2023/06/18 08:22:34;;;;;;;0.80;0.70;;;;;;;;;;5067152;28;20426;-75
2023/06/18 08:25:00;;;;;;;0.80;0.80;;;;;;;;;;5068036;28;20731;-76
2023/06/18 08:27:27;;;;;;;1.07;0.97;;;;;;;;;;5063118;28;20449;-76
2023/06/18 08:29:53;;;;;;;1.10;1.00;;;;;;;;;;5047817;28;20860;-77
2023/06/18 08:32:20;;;;;;;1.07;0.77;;;;;;;;;;5066488;28;20488;-75
2023/06/18 08:34:47;;;;;;;0.83;0.73;;;;;;;;;;5065868;28;20433;-76
2023/06/18 08:37:15;;;;;;;1.60;1.37;;;;;;;;;;5069314;28;20471;-76
2023/06/18 08:39:41;;;;;;;1.23;1.13;;;;;;;;;;5066609;28;20438;-79
2023/06/18 08:42:08;;;;;;;0.80;0.70;;;;;;;;;;5077990;28;20474;-77
2023/06/18 08:44:36;;;;;;;0.80;0.80;;;;;;;;;;5059818;28;20424;-77
2023/06/18 08:47:03;;;;;;;1.63;1.53;;;;;;;;;;5045129;28;21390;-76
2023/06/18 08:49:30;;;;;;;1.53;1.40;;;;;;;;;;5059582;28;20497;-75
2023/06/18 08:51:57;;;;;;;1.20;1.10;;;;;;;;;;5061296;28;20505;-76
2023/06/18 08:54:30;;;;;;;1.47;1.37;;;;;;;;;;5063777;28;20439;-76
2023/06/18 08:56:58;;;;;;;0.80;0.80;;;;;;;;;;5064384;28;20436;-77
2023/06/18 08:59:26;;;;;;;1.43;1.33;;;;;;;;;;5064184;28;20497;-77
2023/06/18 09:01:53;;;;;;;0.80;0.80;;;;;;;;;;5050018;28;20447;-76
2023/06/18 09:04:21;;;;;;;1.00;0.70;;;;;;;;;;5059330;28;20803;-75
2023/06/18 09:06:48;;;;;;;0.90;0.90;;;;;;;;;;5060930;28;20464;-77
2023/06/18 09:09:18;;;;;;;1.20;1.10;;;;;;;;;;5054450;28;20444;-77
2023/06/18 09:11:46;;;;;;;0.80;0.80;;;;;;;;;;5061312;28;20463;-77
2023/06/18 09:14:14;;;;;;;1.17;1.10;;;;;;;;;;5059967;28;20456;-75
2023/06/18 09:16:41;;;;;;;1.00;0.90;;;;;;;;;;5074477;28;20440;-78
2023/06/18 09:19:08;;;;;;;1.00;0.90;;;;;;;;;;5060018;28;20438;-79
2023/06/18 09:21:38;;;;;;;1.13;1.00;;;;;;;;;;5060781;28;20470;-79
2023/06/18 09:24:06;;;;;;;1.20;1.07;;;;;;;;;;5057441;28;20458;-78
2023/06/18 09:26:34;;;;;;;0.90;0.90;;;;;;;;;;5056353;28;20474;-79
2023/06/18 09:29:06;;;;;;;0.90;0.90;;;;;;;;;;5058686;28;20526;-79
2023/06/18 09:31:33;;;;;;;1.20;1.10;;;;;;;;;;5058781;28;20464;-79
2023/06/18 09:34:12;;;;;;;0.87;0.83;;;;;;;;;;5058281;28;21085;-78
2023/06/18 09:36:40;;;;;;;0.80;0.80;;;;;;;;;;5042720;28;20534;-78
2023/06/18 09:39:13;;;;;;;0.80;0.70;;;;;;;;;;5058908;28;20448;-78
2023/06/18 09:41:40;;;;;;;1.10;1.00;;;;;;;;;;5060410;28;20424;-78
2023/06/18 09:44:08;;;;;;;0.80;0.80;;;;;;;;;;5058756;28;20439;-75
2023/06/18 09:46:35;;;;;;;1.20;1.13;;;;;;;;;;5055019;28;20974;-77
2023/06/18 09:49:01;;;;;;;0.80;0.80;;;;;;;;;;5057479;28;20783;-78
2023/06/18 09:51:28;;;;;;;1.47;1.00;;;;;;;;;;5064007;28;20455;-78
2023/06/18 09:53:55;;;;;;;0.80;0.77;;;;;;;;;;5059076;28;20440;-78
2023/06/18 09:56:22;;;;;;;1.00;0.90;;;;;;;;;;5055894;28;20436;-77
2023/06/18 09:58:50;;;;;;;0.83;0.83;;;;;;;;;;5065297;28;20431;-76
2023/06/18 10:01:18;;;;;;;0.80;0.73;;;;;;;;;;5058868;28;20551;-78
2023/06/18 10:03:45;;;;;;;0.90;0.80;;;;;;;;;;5056936;28;20435;-77
2023/06/18 10:06:14;;;;;;;0.80;0.70;;;;;;;;;;5058193;28;20510;-77
2023/06/18 10:08:43;;;;;;;0.80;0.60;;;;;;;;;;5059738;28;20486;-78
2023/06/18 10:11:10;;;;;;;1.10;1.00;;;;;;;;;;5058835;28;20527;-78
2023/06/18 10:13:40;;;;;;;1.30;1.00;;;;;;;;;;5050971;28;20462;-78
2023/06/18 10:16:07;;;;;;;0.80;0.70;;;;;;;;;;5055876;28;20436;-79
2023/06/18 10:18:36;;;;;;;1.00;0.90;;;;;;;;;;5059377;28;20460;-78
2023/06/18 10:21:04;;;;;;;1.33;1.10;;;;;;;;;;5058608;28;21003;-78
2023/06/18 10:23:33;;;;;;;1.10;1.00;;;;;;;;;;5057497;28;20456;-78
2023/06/18 10:26:00;;;;;;;1.00;0.90;;;;;;;;;;5042035;28;20993;-77
2023/06/18 10:28:27;;;;;;;2.30;2.20;;;;;;;;;;5046201;28;20472;-79
2023/06/18 10:30:53;;;;;;;1.17;1.00;;;;;;;;;;5065403;28;20554;-78
2023/06/18 10:33:21;;;;;;;0.80;0.80;;;;;;;;;;5048263;28;20474;-78
2023/06/18 10:35:49;;;;;;;0.80;0.70;;;;;;;;;;5056364;28;20454;-78
2023/06/18 10:38:16;;;;;;;0.80;0.70;;;;;;;;;;5052019;28;21035;-79
2023/06/18 10:40:43;;;;;;;0.73;0.60;;;;;;;;;;5057888;28;20440;-78
2023/06/18 10:43:11;;;;;;;0.70;0.60;;;;;;;;;;5055614;28;20467;-80
2023/06/18 10:45:38;;;;;;;0.70;0.50;;;;;;;;;;5056742;28;20431;-79
2023/06/18 10:48:15;;;;;;;0.90;0.80;;;;;;;;;;5052048;28;20769;-79
2023/06/18 10:50:57;;;;;;;0.90;0.80;;;;;;;;;;5055344;28;20451;-79
2023/06/18 10:53:24;;;;;;;0.80;0.70;;;;;;;;;;5052697;28;20475;-80
2023/06/18 10:55:56;;;;;;;1.20;1.10;;;;;;;;;;5065500;28;20930;-79
2023/06/18 10:58:30;;;;;;;0.90;0.70;;;;;;;;;;5061249;28;20473;-79
2023/06/18 11:00:57;;;;;;;0.80;0.70;;;;;;;;;;5058955;28;20657;-78
2023/06/18 11:03:32;;;;;;;2.93;1.00;;;;;;;;;;5058875;28;20916;-79
2023/06/18 11:06:00;;;;;;;1.07;0.97;;;;;;;;;;5059982;28;20470;-79
2023/06/18 11:08:30;;;;;;;1.00;0.90;;;;;;;;;;5061615;28;20877;-79
2023/06/18 11:11:01;;;;;;;1.03;0.93;;;;;;;;;;5057282;28;20869;-79
2023/06/18 11:13:30;;;;;;;0.80;0.63;;;;;;;;;;5055514;28;20499;-79
2023/06/18 11:16:00;;;;;;;0.80;0.60;;;;;;;;;;5051409;28;20439;-79
2023/06/18 11:18:29;;;;;;;0.80;0.60;;;;;;;;;;5054399;28;20854;-80
2023/06/18 11:20:56;;;;;;;1.00;0.90;;;;;;;;;;5058138;28;20963;-78
2023/06/18 11:23:24;;;;;;;1.67;1.10;;;;;;;;;;5056367;28;20443;-78
2023/06/18 11:25:52;;;;;;;2.30;2.10;;;;;;;;;;5056305;28;20440;-78
2023/06/18 11:28:19;;;;;;;1.00;0.80;;;;;;;;;;5051663;28;20443;-77
2023/06/18 11:30:48;;;;;;;1.10;0.90;;;;;;;;;;5057549;28;20466;-77
2023/06/18 11:33:20;;;;;;;1.63;1.53;;;;;;;;;;5066525;28;20879;-79
2023/06/18 11:35:46;;;;;;;0.80;0.60;;;;;;;;;;5043125;28;20440;-78
2023/06/18 11:38:13;;;;;;;1.33;0.70;;;;;;;;;;5063203;28;20931;-79
2023/06/18 11:40:46;;;;;;;1.00;0.70;;;;;;;;;;5061136;28;20493;-78
2023/06/18 11:43:14;;;;;;;0.80;0.70;;;;;;;;;;5064509;28;20770;-78
2023/06/18 11:45:41;;;;;;;0.80;0.60;;;;;;;;;;5064430;28;20919;-79
2023/06/18 11:48:07;;;;;;;0.80;0.60;;;;;;;;;;5059890;28;20510;-78
2023/06/18 11:50:34;;;;;;;0.90;0.70;;;;;;;;;;5059222;28;20449;-77
2023/06/18 11:53:04;;;;;;;0.90;0.70;;;;;;;;;;5055287;28;20467;-78
2023/06/18 11:55:32;;;;;;;2.63;1.23;;;;;;;;;;5046768;28;20532;-78
2023/06/18 11:58:00;;;;;;;1.57;0.70;;;;;;;;;;5061047;28;20439;-78
2023/06/18 12:00:28;;;;;;;1.73;1.33;;;;;;;;;;5065385;28;20444;-79
2023/06/18 12:02:58;;;;;;;1.00;0.90;;;;;;;;;;5055911;28;20432;-77
2023/06/18 12:05:25;;;;;;;0.90;0.70;;;;;;;;;;5054938;28;20427;-78
2023/06/18 12:07:52;;;;;;;0.90;0.60;;;;;;;;;;5072132;28;20829;-78
2023/06/18 12:10:19;;;;;;;0.90;0.60;;;;;;;;;;5060619;28;20432;-78
2023/06/18 12:12:51;;;;;;;0.90;0.73;;;;;;;;;;5062932;28;20482;-78
2023/06/18 12:15:22;;;;;;;0.90;0.60;;;;;;;;;;5056514;28;20459;-78
2023/06/18 12:17:55;;;;;;;2.17;1.97;;;;;;;;;;5058939;28;20491;-79
2023/06/18 12:20:24;;;;;;;1.63;0.80;;;;;;;;;;5060581;28;20436;-76
2023/06/18 12:22:51;;;;;;;0.97;0.87;;;;;;;;;;5056357;28;20521;-78
2023/06/18 12:25:21;;;;;;;1.03;0.93;;;;;;;;;;5063731;28;20427;-76
2023/06/18 12:27:49;;;;;;;1.30;1.20;;;;;;;;;;5058648;28;20795;-76
2023/06/18 12:30:16;;;;;;;1.80;1.63;;;;;;;;;;5060233;28;20431;-79
2023/06/18 12:32:59;;;;;;;1.47;1.00;;;;;;;;;;5060461;28;20963;-79
2023/06/18 12:35:27;;;;;;;1.00;0.67;;;;;;;;;;5057060;28;20434;-78
2023/06/18 12:37:53;;;;;;;0.87;0.70;;;;;;;;;;5060377;28;21166;-79
2023/06/18 12:40:21;;;;;;;0.90;0.70;;;;;;;;;;5063668;28;20893;-78
2023/06/18 12:42:48;;;;;;;0.80;0.60;;;;;;;;;;5054697;28;20427;-77
2023/06/18 12:45:15;;;;;;;1.10;0.80;;;;;;;;;;5065258;28;20747;-77
2023/06/18 12:47:45;;;;;;;0.90;0.80;;;;;;;;;;5047322;28;20451;-75
2023/06/18 12:50:18;;;;;;;1.30;1.20;;;;;;;;;;5048428;28;20466;-76
2023/06/18 12:52:46;;;;;;;1.03;0.93;;;;;;;;;;5043380;28;20497;-76
2023/06/18 12:55:15;;;;;;;1.10;1.00;;;;;;;;;;5061883;28;20499;-77
2023/06/18 12:57:43;;;;;;;0.80;0.63;;;;;;;;;;5060966;28;20554;-75
2023/06/18 13:00:19;;;;;;;1.00;0.90;;;;;;;;;;5040360;28;20502;-78
2023/06/18 13:02:47;;;;;;;0.80;0.60;;;;;;;;;;5059319;28;20447;-76
2023/06/18 13:05:14;;;;;;;1.00;0.90;;;;;;;;;;5050048;28;20436;-76
2023/06/18 13:07:48;;;;;;;0.80;0.70;;;;;;;;;;5056765;28;20478;-77
2023/06/18 13:10:15;;;;;;;1.10;1.00;;;;;;;;;;5056205;28;20426;-76
2023/06/18 13:12:42;;;;;;;1.50;1.40;;;;;;;;;;5065743;28;20473;-75
2023/06/18 13:15:08;;;;;;;0.90;0.80;;;;;;;;;;5057674;28;20783;-78
2023/06/18 13:17:36;;;;;;;1.37;1.27;;;;;;;;;;5062483;28;20434;-76
2023/06/18 13:20:03;;;;;;;2.10;0.87;;;;;;;;;;5049129;28;20481;-76
2023/06/18 13:22:29;;;;;;;1.07;0.97;;;;;;;;;;5063910;28;20459;-75
2023/06/18 13:24:58;;;;;;;1.10;1.00;;;;;;;;;;5062059;28;20443;-75
2023/06/18 13:27:26;;;;;;;0.80;0.80;;;;;;;;;;5061263;28;20431;-76
2023/06/18 13:29:55;;;;;;;0.90;0.80;;;;;;;;;;5059340;28;20467;-75
2023/06/18 13:32:21;;;;;;;0.93;0.90;;;;;;;;;;5062913;28;20544;-77
2023/06/18 13:34:48;;;;;;;2.20;1.20;;;;;;;;;;5060201;28;20474;-77
2023/06/18 13:37:15;;;;;;;0.90;0.70;;;;;;;;;;5053574;28;20459;-77
2023/06/18 13:39:42;;;;;;;1.00;0.90;;;;;;;;;;5059074;28;20427;-75
2023/06/18 13:42:12;;;;;;;0.90;0.73;;;;;;;;;;5062717;28;20920;-77
2023/06/18 13:44:40;;;;;;;1.30;1.20;;;;;;;;;;5056287;28;20434;-76
2023/06/18 13:47:07;;;;;;;1.43;1.23;;;;;;;;;;5060157;28;20558;-76
2023/06/18 13:49:35;;;;;;;0.70;0.60;;;;;;;;;;5057830;28;20544;-75
2023/06/18 13:52:04;;;;;;;0.80;0.63;;;;;;;;;;5055962;28;20474;-75
2023/06/18 13:54:30;;;;;;;1.47;1.00;;;;;;;;;;5065589;28;20503;-76
2023/06/18 13:56:57;;;;;;;1.40;1.27;;;;;;;;;;5065446;28;20456;-75
2023/06/18 13:59:25;;;;;;;1.43;1.33;;;;;;;;;;5059336;28;20470;-76
2023/06/18 14:01:52;;;;;;;0.80;0.80;;;;;;;;;;5064514;28;20539;-76
2023/06/18 14:04:21;;;;;;;1.00;0.80;;;;;;;;;;5062973;28;20991;-75
2023/06/18 14:06:49;;;;;;;1.57;1.47;;;;;;;;;;5048971;28;20860;-75
2023/06/18 14:09:16;;;;;;;0.90;0.80;;;;;;;;;;5062557;28;20431;-75
2023/06/18 14:11:45;;;;;;;0.83;0.80;;;;;;;;;;5055355;28;20969;-75
2023/06/18 14:14:12;;;;;;;0.70;0.60;;;;;;;;;;5056820;28;20509;-75
2023/06/18 14:16:40;;;;;;;0.80;0.60;;;;;;;;;;5061580;28;20778;-74
2023/06/18 14:19:08;;;;;;;2.37;2.17;;;;;;;;;;5063181;28;20475;-76
2023/06/18 14:21:35;;;;;;;1.13;1.03;;;;;;;;;;5054720;28;20440;-75
2023/06/18 14:24:02;;;;;;;1.73;1.03;;;;;;;;;;5061965;28;20438;-76
2023/06/18 14:26:29;;;;;;;1.10;1.00;;;;;;;;;;5063316;28;20828;-75
2023/06/18 14:28:56;;;;;;;1.30;1.20;;;;;;;;;;5058599;28;20517;-75
2023/06/18 14:31:23;;;;;;;0.80;0.77;;;;;;;;;;5063181;28;20983;-75
2023/06/18 14:33:51;;;;;;;1.30;1.20;;;;;;;;;;5061047;28;20472;-75
2023/06/18 14:36:34;;;;;;;0.80;0.60;;;;;;;;;;5055363;28;20502;-76
2023/06/18 14:39:04;;;;;;;1.00;0.90;;;;;;;;;;5047267;28;21042;-75
2023/06/18 14:41:31;;;;;;;0.80;0.60;;;;;;;;;;5053939;28;20443;-75
2023/06/18 14:43:57;;;;;;;0.80;0.60;;;;;;;;;;5056392;28;20438;-76
2023/06/18 14:46:25;;;;;;;1.73;0.90;;;;;;;;;;5063282;28;20439;-76
2023/06/18 14:48:53;;;;;;;0.90;0.70;;;;;;;;;;5054900;28;20474;-76